sensor_id;sensor_type;location;lat;lon;timestamp;P1;durP1;ratioP1;P2;durP2;ratioP2
32838;SDS011;19182;41.820;12.808;2023-07-29T00:02:07;5.63;;;2.25;;
32838;SDS011;19182;41.820;12.808;2023-07-29T00:04:33;5.32;;;2.38;;
32838;SDS011;19182;41.820;12.808;2023-07-29T00:07:00;9.00;;;2.67;;
32838;SDS011;19182;41.820;12.808;2023-07-29T00:09:27;6.20;;;2.03;;
32838;SDS011;19182;41.820;12.808;2023-07-29T00:11:54;6.03;;;2.53;;
32838;SDS011;19182;41.820;12.808;2023-07-29T00:14:21;8.50;;;2.13;;
32838;SDS011;19182;41.820;12.808;2023-07-29T00:16:48;5.93;;;2.25;;
32838;SDS011;19182;41.820;12.808;2023-07-29T00:19:15;6.03;;;2.45;;
32838;SDS011;19182;41.820;12.808;2023-07-29T00:21:41;8.15;;;2.45;;
32838;SDS011;19182;41.820;12.808;2023-07-29T00:24:08;8.05;;;2.35;;
32838;SDS011;19182;41.820;12.808;2023-07-29T00:26:35;9.75;;;2.20;;
32838;SDS011;19182;41.820;12.808;2023-07-29T00:29:01;4.70;;;2.25;;
32838;SDS011;19182;41.820;12.808;2023-07-29T00:31:28;5.30;;;2.05;;
32838;SDS011;19182;41.820;12.808;2023-07-29T00:33:53;8.15;;;2.40;;
32838;SDS011;19182;41.820;12.808;2023-07-29T00:36:23;5.75;;;2.42;;
32838;SDS011;19182;41.820;12.808;2023-07-29T00:38:49;7.57;;;2.45;;
32838;SDS011;19182;41.820;12.808;2023-07-29T00:41:18;6.00;;;2.30;;
32838;SDS011;19182;41.820;12.808;2023-07-29T00:43:45;9.98;;;2.70;;
32838;SDS011;19182;41.820;12.808;2023-07-29T00:46:12;3.60;;;2.40;;
32838;SDS011;19182;41.820;12.808;2023-07-29T00:48:40;3.80;;;1.98;;
32838;SDS011;19182;41.820;12.808;2023-07-29T00:51:05;6.07;;;2.58;;
32838;SDS011;19182;41.820;12.808;2023-07-29T00:53:31;8.23;;;2.42;;
32838;SDS011;19182;41.820;12.808;2023-07-29T00:55:58;5.53;;;2.30;;
32838;SDS011;19182;41.820;12.808;2023-07-29T00:58:25;6.13;;;2.47;;
32838;SDS011;19182;41.820;12.808;2023-07-29T01:00:52;6.10;;;2.67;;
32838;SDS011;19182;41.820;12.808;2023-07-29T01:03:20;5.57;;;2.50;;
32838;SDS011;19182;41.820;12.808;2023-07-29T01:13:53;8.50;;;2.80;;
32838;SDS011;19182;41.820;12.808;2023-07-29T01:16:25;4.70;;;2.42;;
32838;SDS011;19182;41.820;12.808;2023-07-29T01:18:57;6.35;;;2.65;;
32838;SDS011;19182;41.820;12.808;2023-07-29T01:21:24;7.88;;;2.95;;
32838;SDS011;19182;41.820;12.808;2023-07-29T01:23:53;6.90;;;3.50;;
32838;SDS011;19182;41.820;12.808;2023-07-29T01:26:23;7.30;;;3.20;;
32838;SDS011;19182;41.820;12.808;2023-07-29T01:28:50;6.47;;;3.03;;
32838;SDS011;19182;41.820;12.808;2023-07-29T01:34:06;5.55;;;3.17;;
32838;SDS011;19182;41.820;12.808;2023-07-29T01:36:36;12.45;;;3.47;;
32838;SDS011;19182;41.820;12.808;2023-07-29T01:39:05;8.70;;;3.28;;
32838;SDS011;19182;41.820;12.808;2023-07-29T01:41:33;8.80;;;3.45;;
32838;SDS011;19182;41.820;12.808;2023-07-29T01:43:59;9.15;;;3.00;;
32838;SDS011;19182;41.820;12.808;2023-07-29T01:46:26;5.50;;;3.13;;
32838;SDS011;19182;41.820;12.808;2023-07-29T01:48:52;6.90;;;2.72;;
32838;SDS011;19182;41.820;12.808;2023-07-29T01:51:19;6.78;;;3.42;;
32838;SDS011;19182;41.820;12.808;2023-07-29T01:53:46;9.95;;;3.67;;
32838;SDS011;19182;41.820;12.808;2023-07-29T01:56:13;12.02;;;3.45;;
32838;SDS011;19182;41.820;12.808;2023-07-29T01:58:39;12.93;;;3.35;;
32838;SDS011;19182;41.820;12.808;2023-07-29T02:01:05;10.40;;;3.10;;
32838;SDS011;19182;41.820;12.808;2023-07-29T02:03:31;8.48;;;3.00;;
32838;SDS011;19182;41.820;12.808;2023-07-29T02:05:57;9.27;;;3.45;;
32838;SDS011;19182;41.820;12.808;2023-07-29T02:08:23;6.95;;;2.78;;
32838;SDS011;19182;41.820;12.808;2023-07-29T02:10:48;6.28;;;3.13;;
32838;SDS011;19182;41.820;12.808;2023-07-29T02:13:15;6.72;;;3.10;;
32838;SDS011;19182;41.820;12.808;2023-07-29T02:15:43;6.65;;;2.92;;
32838;SDS011;19182;41.820;12.808;2023-07-29T02:18:09;9.43;;;3.05;;
32838;SDS011;19182;41.820;12.808;2023-07-29T02:20:36;11.43;;;3.00;;
32838;SDS011;19182;41.820;12.808;2023-07-29T02:23:02;8.63;;;3.08;;
32838;SDS011;19182;41.820;12.808;2023-07-29T02:25:28;8.57;;;2.97;;
32838;SDS011;19182;41.820;12.808;2023-07-29T02:27:54;8.65;;;3.90;;
32838;SDS011;19182;41.820;12.808;2023-07-29T02:30:20;6.75;;;2.83;;
32838;SDS011;19182;41.820;12.808;2023-07-29T02:32:46;7.30;;;3.20;;
32838;SDS011;19182;41.820;12.808;2023-07-29T02:35:12;8.07;;;3.00;;
32838;SDS011;19182;41.820;12.808;2023-07-29T02:37:37;5.15;;;2.47;;
32838;SDS011;19182;41.820;12.808;2023-07-29T02:40:04;8.40;;;3.00;;
32838;SDS011;19182;41.820;12.808;2023-07-29T02:42:31;6.80;;;3.63;;
32838;SDS011;19182;41.820;12.808;2023-07-29T02:44:56;8.63;;;3.10;;
32838;SDS011;19182;41.820;12.808;2023-07-29T02:47:22;5.85;;;2.95;;
32838;SDS011;19182;41.820;12.808;2023-07-29T02:49:49;5.32;;;2.40;;
32838;SDS011;19182;41.820;12.808;2023-07-29T02:52:15;9.45;;;3.10;;
32838;SDS011;19182;41.820;12.808;2023-07-29T02:54:42;6.13;;;3.10;;
32838;SDS011;19182;41.820;12.808;2023-07-29T02:57:08;8.38;;;3.40;;
32838;SDS011;19182;41.820;12.808;2023-07-29T02:59:35;3.85;;;2.42;;
32838;SDS011;19182;41.820;12.808;2023-07-29T03:02:02;8.73;;;2.85;;
32838;SDS011;19182;41.820;12.808;2023-07-29T03:04:29;4.93;;;2.63;;
32838;SDS011;19182;41.820;12.808;2023-07-29T03:06:56;5.57;;;2.45;;
32838;SDS011;19182;41.820;12.808;2023-07-29T03:09:24;5.38;;;2.80;;
32838;SDS011;19182;41.820;12.808;2023-07-29T03:11:51;5.80;;;2.75;;
32838;SDS011;19182;41.820;12.808;2023-07-29T03:14:17;6.60;;;2.78;;
32838;SDS011;19182;41.820;12.808;2023-07-29T03:16:44;9.80;;;3.22;;
32838;SDS011;19182;41.820;12.808;2023-07-29T03:19:10;7.53;;;3.28;;
32838;SDS011;19182;41.820;12.808;2023-07-29T03:21:37;8.32;;;3.20;;
32838;SDS011;19182;41.820;12.808;2023-07-29T03:24:03;6.65;;;3.20;;
32838;SDS011;19182;41.820;12.808;2023-07-29T03:26:29;10.57;;;3.15;;
32838;SDS011;19182;41.820;12.808;2023-07-29T03:28:55;6.32;;;2.55;;
32838;SDS011;19182;41.820;12.808;2023-07-29T03:31:21;7.85;;;3.42;;
32838;SDS011;19182;41.820;12.808;2023-07-29T03:33:46;8.18;;;3.63;;
32838;SDS011;19182;41.820;12.808;2023-07-29T03:36:14;8.80;;;3.40;;
32838;SDS011;19182;41.820;12.808;2023-07-29T03:38:41;12.50;;;2.80;;
32838;SDS011;19182;41.820;12.808;2023-07-29T03:41:09;4.13;;;2.70;;
32838;SDS011;19182;41.820;12.808;2023-07-29T03:43:36;10.98;;;3.63;;
32838;SDS011;19182;41.820;12.808;2023-07-29T03:46:01;9.65;;;2.70;;
32838;SDS011;19182;41.820;12.808;2023-07-29T03:48:27;9.88;;;3.33;;
32838;SDS011;19182;41.820;12.808;2023-07-29T03:50:53;7.25;;;3.55;;
32838;SDS011;19182;41.820;12.808;2023-07-29T03:53:19;6.80;;;3.33;;
32838;SDS011;19182;41.820;12.808;2023-07-29T03:55:45;8.30;;;3.38;;
32838;SDS011;19182;41.820;12.808;2023-07-29T03:58:12;6.78;;;3.22;;
32838;SDS011;19182;41.820;12.808;2023-07-29T04:00:37;10.98;;;3.08;;
32838;SDS011;19182;41.820;12.808;2023-07-29T04:03:03;7.55;;;3.03;;
32838;SDS011;19182;41.820;12.808;2023-07-29T04:05:29;6.40;;;2.80;;
32838;SDS011;19182;41.820;12.808;2023-07-29T04:07:56;7.55;;;2.88;;
32838;SDS011;19182;41.820;12.808;2023-07-29T04:10:22;7.15;;;3.22;;
32838;SDS011;19182;41.820;12.808;2023-07-29T04:12:48;6.22;;;3.03;;
32838;SDS011;19182;41.820;12.808;2023-07-29T04:15:15;6.93;;;3.22;;
32838;SDS011;19182;41.820;12.808;2023-07-29T04:17:41;6.47;;;3.13;;
32838;SDS011;19182;41.820;12.808;2023-07-29T04:20:07;11.57;;;3.00;;
32838;SDS011;19182;41.820;12.808;2023-07-29T04:22:33;14.70;;;3.58;;
32838;SDS011;19182;41.820;12.808;2023-07-29T04:24:58;6.57;;;2.75;;
32838;SDS011;19182;41.820;12.808;2023-07-29T04:27:24;8.02;;;3.03;;
32838;SDS011;19182;41.820;12.808;2023-07-29T04:29:50;6.72;;;2.72;;
32838;SDS011;19182;41.820;12.808;2023-07-29T04:32:15;7.53;;;2.85;;
32838;SDS011;19182;41.820;12.808;2023-07-29T04:34:41;11.45;;;3.13;;
32838;SDS011;19182;41.820;12.808;2023-07-29T04:37:08;6.50;;;3.00;;
32838;SDS011;19182;41.820;12.808;2023-07-29T04:39:33;8.55;;;3.10;;
32838;SDS011;19182;41.820;12.808;2023-07-29T04:41:59;8.95;;;3.10;;
32838;SDS011;19182;41.820;12.808;2023-07-29T04:44:25;27.55;;;4.90;;
32838;SDS011;19182;41.820;12.808;2023-07-29T04:46:51;16.38;;;4.55;;
32838;SDS011;19182;41.820;12.808;2023-07-29T04:49:17;19.00;;;4.25;;
32838;SDS011;19182;41.820;12.808;2023-07-29T04:51:42;12.77;;;3.65;;
32838;SDS011;19182;41.820;12.808;2023-07-29T04:54:09;14.95;;;4.07;;
32838;SDS011;19182;41.820;12.808;2023-07-29T04:56:34;8.98;;;3.47;;
32838;SDS011;19182;41.820;12.808;2023-07-29T04:59:00;10.25;;;3.78;;
32838;SDS011;19182;41.820;12.808;2023-07-29T05:01:25;7.70;;;3.45;;
32838;SDS011;19182;41.820;12.808;2023-07-29T05:03:51;11.02;;;3.47;;
32838;SDS011;19182;41.820;12.808;2023-07-29T05:06:17;10.60;;;3.25;;
32838;SDS011;19182;41.820;12.808;2023-07-29T05:08:42;9.85;;;3.00;;
32838;SDS011;19182;41.820;12.808;2023-07-29T05:11:09;5.95;;;3.28;;
32838;SDS011;19182;41.820;12.808;2023-07-29T05:13:35;6.28;;;3.10;;
32838;SDS011;19182;41.820;12.808;2023-07-29T05:16:01;15.10;;;4.35;;
32838;SDS011;19182;41.820;12.808;2023-07-29T05:18:28;28.25;;;4.68;;
32838;SDS011;19182;41.820;12.808;2023-07-29T05:20:55;32.05;;;3.80;;
32838;SDS011;19182;41.820;12.808;2023-07-29T05:23:21;10.25;;;3.78;;
32838;SDS011;19182;41.820;12.808;2023-07-29T05:25:46;13.73;;;3.10;;
32838;SDS011;19182;41.820;12.808;2023-07-29T05:28:13;7.95;;;3.10;;
32838;SDS011;19182;41.820;12.808;2023-07-29T05:30:39;13.02;;;3.28;;
32838;SDS011;19182;41.820;12.808;2023-07-29T05:33:05;8.10;;;2.72;;
32838;SDS011;19182;41.820;12.808;2023-07-29T05:35:33;11.13;;;2.88;;
32838;SDS011;19182;41.820;12.808;2023-07-29T05:37:59;11.68;;;3.17;;
32838;SDS011;19182;41.820;12.808;2023-07-29T05:40:24;11.95;;;2.97;;
32838;SDS011;19182;41.820;12.808;2023-07-29T05:42:50;7.75;;;2.85;;
32838;SDS011;19182;41.820;12.808;2023-07-29T05:45:16;7.50;;;2.83;;
32838;SDS011;19182;41.820;12.808;2023-07-29T05:47:42;8.70;;;3.60;;
32838;SDS011;19182;41.820;12.808;2023-07-29T05:50:08;6.45;;;3.05;;
32838;SDS011;19182;41.820;12.808;2023-07-29T05:52:34;10.20;;;2.92;;
32838;SDS011;19182;41.820;12.808;2023-07-29T05:55:01;6.15;;;2.95;;
32838;SDS011;19182;41.820;12.808;2023-07-29T05:57:27;9.38;;;3.13;;
32838;SDS011;19182;41.820;12.808;2023-07-29T05:59:53;8.65;;;3.25;;
32838;SDS011;19182;41.820;12.808;2023-07-29T06:02:19;5.30;;;2.78;;
32838;SDS011;19182;41.820;12.808;2023-07-29T06:04:44;5.80;;;2.20;;
32838;SDS011;19182;41.820;12.808;2023-07-29T06:07:10;5.50;;;2.58;;
32838;SDS011;19182;41.820;12.808;2023-07-29T06:09:36;5.80;;;2.30;;
32838;SDS011;19182;41.820;12.808;2023-07-29T06:12:02;6.43;;;2.38;;
32838;SDS011;19182;41.820;12.808;2023-07-29T06:14:28;7.80;;;2.83;;
32838;SDS011;19182;41.820;12.808;2023-07-29T06:16:54;10.48;;;2.38;;
32838;SDS011;19182;41.820;12.808;2023-07-29T06:19:20;7.20;;;2.13;;
32838;SDS011;19182;41.820;12.808;2023-07-29T06:21:46;4.63;;;2.17;;
32838;SDS011;19182;41.820;12.808;2023-07-29T06:24:11;5.63;;;2.25;;
32838;SDS011;19182;41.820;12.808;2023-07-29T06:26:38;5.45;;;2.08;;
32838;SDS011;19182;41.820;12.808;2023-07-29T06:29:03;3.88;;;1.95;;
32838;SDS011;19182;41.820;12.808;2023-07-29T06:31:29;5.50;;;2.17;;
32838;SDS011;19182;41.820;12.808;2023-07-29T06:33:55;12.57;;;2.10;;
32838;SDS011;19182;41.820;12.808;2023-07-29T06:36:21;5.53;;;1.80;;
32838;SDS011;19182;41.820;12.808;2023-07-29T06:38:48;3.75;;;1.70;;
32838;SDS011;19182;41.820;12.808;2023-07-29T06:41:14;4.15;;;1.73;;
32838;SDS011;19182;41.820;12.808;2023-07-29T06:43:40;4.82;;;1.98;;
32838;SDS011;19182;41.820;12.808;2023-07-29T06:46:06;11.85;;;2.20;;
32838;SDS011;19182;41.820;12.808;2023-07-29T06:48:31;7.70;;;2.08;;
32838;SDS011;19182;41.820;12.808;2023-07-29T06:50:57;3.53;;;1.70;;
32838;SDS011;19182;41.820;12.808;2023-07-29T06:53:26;4.72;;;1.20;;
32838;SDS011;19182;41.820;12.808;2023-07-29T06:55:53;4.70;;;1.75;;
32838;SDS011;19182;41.820;12.808;2023-07-29T06:58:20;6.15;;;1.45;;
32838;SDS011;19182;41.820;12.808;2023-07-29T07:00:46;4.43;;;1.75;;
32838;SDS011;19182;41.820;12.808;2023-07-29T07:03:13;7.03;;;1.55;;
32838;SDS011;19182;41.820;12.808;2023-07-29T07:05:40;5.88;;;1.70;;
32838;SDS011;19182;41.820;12.808;2023-07-29T07:08:05;5.97;;;1.75;;
32838;SDS011;19182;41.820;12.808;2023-07-29T07:10:32;4.90;;;1.52;;
32838;SDS011;19182;41.820;12.808;2023-07-29T07:12:59;3.42;;;1.63;;
32838;SDS011;19182;41.820;12.808;2023-07-29T07:15:25;5.90;;;2.33;;
32838;SDS011;19182;41.820;12.808;2023-07-29T07:17:51;2.75;;;1.60;;
32838;SDS011;19182;41.820;12.808;2023-07-29T07:20:18;3.75;;;1.60;;
32838;SDS011;19182;41.820;12.808;2023-07-29T07:22:44;3.90;;;1.50;;
32838;SDS011;19182;41.820;12.808;2023-07-29T07:25:09;5.55;;;1.80;;
32838;SDS011;19182;41.820;12.808;2023-07-29T07:27:36;2.60;;;1.48;;
32838;SDS011;19182;41.820;12.808;2023-07-29T07:30:02;9.07;;;1.70;;
32838;SDS011;19182;41.820;12.808;2023-07-29T07:32:29;6.13;;;1.60;;
32838;SDS011;19182;41.820;12.808;2023-07-29T07:34:55;12.13;;;2.22;;
32838;SDS011;19182;41.820;12.808;2023-07-29T07:37:21;10.63;;;1.33;;
32838;SDS011;19182;41.820;12.808;2023-07-29T07:39:47;9.07;;;1.60;;
32838;SDS011;19182;41.820;12.808;2023-07-29T07:42:12;6.70;;;2.00;;
32838;SDS011;19182;41.820;12.808;2023-07-29T07:44:38;7.85;;;2.20;;
32838;SDS011;19182;41.820;12.808;2023-07-29T07:47:04;9.73;;;2.25;;
32838;SDS011;19182;41.820;12.808;2023-07-29T07:49:31;6.78;;;2.28;;
32838;SDS011;19182;41.820;12.808;2023-07-29T07:51:57;7.13;;;1.63;;
32838;SDS011;19182;41.820;12.808;2023-07-29T07:54:22;6.10;;;2.53;;
32838;SDS011;19182;41.820;12.808;2023-07-29T07:56:49;9.15;;;2.60;;
32838;SDS011;19182;41.820;12.808;2023-07-29T07:59:16;6.07;;;1.80;;
32838;SDS011;19182;41.820;12.808;2023-07-29T08:01:42;11.75;;;3.55;;
32838;SDS011;19182;41.820;12.808;2023-07-29T08:04:08;6.20;;;2.80;;
32838;SDS011;19182;41.820;12.808;2023-07-29T08:06:35;3.10;;;2.25;;
32838;SDS011;19182;41.820;12.808;2023-07-29T08:09:01;4.72;;;1.77;;
32838;SDS011;19182;41.820;12.808;2023-07-29T08:11:27;6.47;;;1.90;;
32838;SDS011;19182;41.820;12.808;2023-07-29T08:13:53;5.57;;;1.55;;
32838;SDS011;19182;41.820;12.808;2023-07-29T08:16:20;5.03;;;1.90;;
32838;SDS011;19182;41.820;12.808;2023-07-29T08:18:46;3.10;;;1.50;;
32838;SDS011;19182;41.820;12.808;2023-07-29T08:21:13;6.75;;;1.73;;
32838;SDS011;19182;41.820;12.808;2023-07-29T08:23:39;4.95;;;1.85;;
32838;SDS011;19182;41.820;12.808;2023-07-29T08:26:05;3.90;;;1.63;;
32838;SDS011;19182;41.820;12.808;2023-07-29T08:28:33;6.88;;;2.35;;
32838;SDS011;19182;41.820;12.808;2023-07-29T08:31:00;5.40;;;1.83;;
32838;SDS011;19182;41.820;12.808;2023-07-29T08:33:26;6.20;;;1.92;;
32838;SDS011;19182;41.820;12.808;2023-07-29T08:35:52;3.67;;;2.00;;
32838;SDS011;19182;41.820;12.808;2023-07-29T08:38:20;4.70;;;1.50;;
32838;SDS011;19182;41.820;12.808;2023-07-29T08:40:49;3.72;;;1.60;;
32838;SDS011;19182;41.820;12.808;2023-07-29T08:43:34;5.35;;;1.55;;
32838;SDS011;19182;41.820;12.808;2023-07-29T08:48:32;4.47;;;1.67;;
32838;SDS011;19182;41.820;12.808;2023-07-29T08:51:02;3.67;;;1.60;;
32838;SDS011;19182;41.820;12.808;2023-07-29T08:53:30;5.28;;;1.63;;
32838;SDS011;19182;41.820;12.808;2023-07-29T08:55:56;4.45;;;1.40;;
32838;SDS011;19182;41.820;12.808;2023-07-29T08:58:23;6.30;;;1.45;;
32838;SDS011;19182;41.820;12.808;2023-07-29T09:00:49;6.38;;;1.55;;
32838;SDS011;19182;41.820;12.808;2023-07-29T09:03:17;6.35;;;2.50;;
32838;SDS011;19182;41.820;12.808;2023-07-29T09:05:42;4.70;;;1.42;;
32838;SDS011;19182;41.820;12.808;2023-07-29T09:08:08;9.18;;;2.00;;
32838;SDS011;19182;41.820;12.808;2023-07-29T09:10:35;9.88;;;1.85;;
32838;SDS011;19182;41.820;12.808;2023-07-29T09:13:02;6.47;;;1.77;;
32838;SDS011;19182;41.820;12.808;2023-07-29T09:15:29;6.53;;;1.88;;
32838;SDS011;19182;41.820;12.808;2023-07-29T09:17:57;2.20;;;1.50;;
32838;SDS011;19182;41.820;12.808;2023-07-29T09:20:24;6.63;;;2.03;;
32838;SDS011;19182;41.820;12.808;2023-07-29T09:22:53;7.72;;;2.05;;
32838;SDS011;19182;41.820;12.808;2023-07-29T09:25:26;7.57;;;2.05;;
32838;SDS011;19182;41.820;12.808;2023-07-29T09:27:59;7.10;;;2.20;;
32838;SDS011;19182;41.820;12.808;2023-07-29T09:30:26;2.67;;;1.73;;
32838;SDS011;19182;41.820;12.808;2023-07-29T09:35:32;6.32;;;2.00;;
32838;SDS011;19182;41.820;12.808;2023-07-29T09:37:59;4.97;;;2.05;;
32838;SDS011;19182;41.820;12.808;2023-07-29T09:40:25;7.20;;;2.03;;
32838;SDS011;19182;41.820;12.808;2023-07-29T09:42:51;4.47;;;1.58;;
32838;SDS011;19182;41.820;12.808;2023-07-29T09:45:22;6.75;;;1.75;;
32838;SDS011;19182;41.820;12.808;2023-07-29T09:47:49;5.53;;;1.73;;
32838;SDS011;19182;41.820;12.808;2023-07-29T09:50:16;8.27;;;1.83;;
32838;SDS011;19182;41.820;12.808;2023-07-29T09:52:43;4.97;;;1.50;;
32838;SDS011;19182;41.820;12.808;2023-07-29T09:55:12;7.22;;;2.20;;
32838;SDS011;19182;41.820;12.808;2023-07-29T09:57:42;5.03;;;1.98;;
32838;SDS011;19182;41.820;12.808;2023-07-29T10:00:10;8.23;;;2.45;;
32838;SDS011;19182;41.820;12.808;2023-07-29T10:02:41;5.35;;;1.90;;
32838;SDS011;19182;41.820;12.808;2023-07-29T10:05:08;7.45;;;1.80;;
32838;SDS011;19182;41.820;12.808;2023-07-29T10:07:36;5.45;;;1.67;;
32838;SDS011;19182;41.820;12.808;2023-07-29T10:10:03;8.13;;;1.90;;
32838;SDS011;19182;41.820;12.808;2023-07-29T10:12:30;6.10;;;1.73;;
32838;SDS011;19182;41.820;12.808;2023-07-29T10:15:00;8.35;;;1.83;;
32838;SDS011;19182;41.820;12.808;2023-07-29T10:17:29;6.82;;;1.95;;
32838;SDS011;19182;41.820;12.808;2023-07-29T10:19:58;7.25;;;2.05;;
32838;SDS011;19182;41.820;12.808;2023-07-29T10:22:27;4.80;;;1.73;;
32838;SDS011;19182;41.820;12.808;2023-07-29T10:24:54;8.10;;;1.73;;
32838;SDS011;19182;41.820;12.808;2023-07-29T10:27:24;6.53;;;1.48;;
32838;SDS011;19182;41.820;12.808;2023-07-29T10:29:52;5.00;;;1.73;;
32838;SDS011;19182;41.820;12.808;2023-07-29T10:32:22;5.15;;;2.05;;
32838;SDS011;19182;41.820;12.808;2023-07-29T10:34:52;3.67;;;1.73;;
32838;SDS011;19182;41.820;12.808;2023-07-29T10:37:18;9.27;;;2.17;;
32838;SDS011;19182;41.820;12.808;2023-07-29T10:39:54;5.45;;;1.73;;
32838;SDS011;19182;41.820;12.808;2023-07-29T10:42:21;3.80;;;1.55;;
32838;SDS011;19182;41.820;12.808;2023-07-29T10:44:47;3.28;;;1.65;;
32838;SDS011;19182;41.820;12.808;2023-07-29T10:47:16;6.30;;;1.83;;
32838;SDS011;19182;41.820;12.808;2023-07-29T10:52:13;4.50;;;1.70;;
32838;SDS011;19182;41.820;12.808;2023-07-29T10:54:44;4.82;;;1.65;;
32838;SDS011;19182;41.820;12.808;2023-07-29T10:57:15;4.22;;;2.13;;
32838;SDS011;19182;41.820;12.808;2023-07-29T11:00:03;5.63;;;2.10;;
32838;SDS011;19182;41.820;12.808;2023-07-29T11:02:31;5.15;;;2.35;;
32838;SDS011;19182;41.820;12.808;2023-07-29T11:04:59;6.68;;;2.40;;
32838;SDS011;19182;41.820;12.808;2023-07-29T11:07:46;5.13;;;2.70;;
32838;SDS011;19182;41.820;12.808;2023-07-29T11:10:13;8.27;;;2.50;;
32838;SDS011;19182;41.820;12.808;2023-07-29T11:17:55;9.05;;;3.00;;
32838;SDS011;19182;41.820;12.808;2023-07-29T11:20:26;6.20;;;3.15;;
32838;SDS011;19182;41.820;12.808;2023-07-29T11:22:54;8.23;;;3.70;;
32838;SDS011;19182;41.820;12.808;2023-07-29T11:25:23;7.95;;;4.45;;
32838;SDS011;19182;41.820;12.808;2023-07-29T11:27:51;7.60;;;4.43;;
32838;SDS011;19182;41.820;12.808;2023-07-29T11:30:18;7.20;;;4.32;;
32838;SDS011;19182;41.820;12.808;2023-07-29T11:32:44;8.60;;;5.20;;
32838;SDS011;19182;41.820;12.808;2023-07-29T11:37:39;10.07;;;3.55;;
32838;SDS011;19182;41.820;12.808;2023-07-29T11:40:06;8.48;;;3.38;;
32838;SDS011;19182;41.820;12.808;2023-07-29T11:42:33;6.25;;;4.60;;
32838;SDS011;19182;41.820;12.808;2023-07-29T11:45:00;9.90;;;5.05;;
32838;SDS011;19182;41.820;12.808;2023-07-29T11:47:27;7.50;;;4.22;;
32838;SDS011;19182;41.820;12.808;2023-07-29T11:49:58;8.38;;;3.28;;
32838;SDS011;19182;41.820;12.808;2023-07-29T11:52:25;12.80;;;5.93;;
32838;SDS011;19182;41.820;12.808;2023-07-29T11:54:52;6.68;;;4.22;;
32838;SDS011;19182;41.820;12.808;2023-07-29T11:57:19;5.63;;;2.90;;
32838;SDS011;19182;41.820;12.808;2023-07-29T11:59:46;10.55;;;3.40;;
32838;SDS011;19182;41.820;12.808;2023-07-29T12:02:16;7.82;;;2.90;;
32838;SDS011;19182;41.820;12.808;2023-07-29T12:04:44;7.10;;;4.07;;
32838;SDS011;19182;41.820;12.808;2023-07-29T12:07:12;7.73;;;4.50;;
32838;SDS011;19182;41.820;12.808;2023-07-29T12:09:39;9.93;;;5.07;;
32838;SDS011;19182;41.820;12.808;2023-07-29T12:12:07;9.18;;;5.10;;
32838;SDS011;19182;41.820;12.808;2023-07-29T12:14:34;7.45;;;4.18;;
32838;SDS011;19182;41.820;12.808;2023-07-29T12:17:00;5.50;;;3.28;;
32838;SDS011;19182;41.820;12.808;2023-07-29T12:19:36;6.45;;;3.53;;
32838;SDS011;19182;41.820;12.808;2023-07-29T12:22:03;12.27;;;4.75;;
32838;SDS011;19182;41.820;12.808;2023-07-29T12:24:31;6.50;;;2.83;;
32838;SDS011;19182;41.820;12.808;2023-07-29T12:26:58;5.63;;;3.10;;
32838;SDS011;19182;41.820;12.808;2023-07-29T12:29:25;9.32;;;3.10;;
32838;SDS011;19182;41.820;12.808;2023-07-29T12:31:58;6.25;;;3.08;;
32838;SDS011;19182;41.820;12.808;2023-07-29T12:34:26;6.60;;;2.58;;
32838;SDS011;19182;41.820;12.808;2023-07-29T12:36:53;4.97;;;2.70;;
32838;SDS011;19182;41.820;12.808;2023-07-29T12:39:23;10.85;;;3.28;;
32838;SDS011;19182;41.820;12.808;2023-07-29T12:41:51;7.15;;;3.20;;
32838;SDS011;19182;41.820;12.808;2023-07-29T12:44:19;7.25;;;3.08;;
32838;SDS011;19182;41.820;12.808;2023-07-29T12:46:45;5.72;;;3.33;;
32838;SDS011;19182;41.820;12.808;2023-07-29T12:49:12;6.00;;;2.70;;
32838;SDS011;19182;41.820;12.808;2023-07-29T12:51:37;5.07;;;2.65;;
32838;SDS011;19182;41.820;12.808;2023-07-29T12:54:03;6.60;;;2.90;;
32838;SDS011;19182;41.820;12.808;2023-07-29T12:56:30;6.45;;;2.70;;
32838;SDS011;19182;41.820;12.808;2023-07-29T12:58:57;4.63;;;2.30;;
32838;SDS011;19182;41.820;12.808;2023-07-29T13:01:25;4.63;;;2.10;;
32838;SDS011;19182;41.820;12.808;2023-07-29T13:03:53;4.32;;;2.10;;
32838;SDS011;19182;41.820;12.808;2023-07-29T13:06:20;5.38;;;2.60;;
32838;SDS011;19182;41.820;12.808;2023-07-29T13:08:47;4.50;;;2.03;;
32838;SDS011;19182;41.820;12.808;2023-07-29T13:11:14;4.20;;;2.20;;
32838;SDS011;19182;41.820;12.808;2023-07-29T13:13:40;4.95;;;2.00;;
32838;SDS011;19182;41.820;12.808;2023-07-29T13:16:06;4.60;;;2.10;;
32838;SDS011;19182;41.820;12.808;2023-07-29T13:18:32;6.05;;;1.88;;
32838;SDS011;19182;41.820;12.808;2023-07-29T13:20:58;6.18;;;2.17;;
32838;SDS011;19182;41.820;12.808;2023-07-29T13:23:25;4.35;;;2.03;;
32838;SDS011;19182;41.820;12.808;2023-07-29T13:25:51;6.45;;;2.10;;
32838;SDS011;19182;41.820;12.808;2023-07-29T13:28:17;2.92;;;1.67;;
32838;SDS011;19182;41.820;12.808;2023-07-29T13:30:43;5.20;;;2.00;;
32838;SDS011;19182;41.820;12.808;2023-07-29T13:33:09;5.78;;;1.85;;
32838;SDS011;19182;41.820;12.808;2023-07-29T13:35:35;6.40;;;2.22;;
32838;SDS011;19182;41.820;12.808;2023-07-29T13:38:01;6.57;;;2.10;;
32838;SDS011;19182;41.820;12.808;2023-07-29T13:40:27;5.70;;;1.70;;
32838;SDS011;19182;41.820;12.808;2023-07-29T13:42:53;6.47;;;2.25;;
32838;SDS011;19182;41.820;12.808;2023-07-29T13:45:21;4.28;;;2.20;;
32838;SDS011;19182;41.820;12.808;2023-07-29T13:47:48;7.25;;;2.08;;
32838;SDS011;19182;41.820;12.808;2023-07-29T13:50:15;5.35;;;2.55;;
32838;SDS011;19182;41.820;12.808;2023-07-29T13:52:41;6.70;;;2.65;;
32838;SDS011;19182;41.820;12.808;2023-07-29T13:55:07;5.15;;;2.22;;
32838;SDS011;19182;41.820;12.808;2023-07-29T13:57:33;4.82;;;1.98;;
32838;SDS011;19182;41.820;12.808;2023-07-29T13:59:59;6.05;;;2.38;;
32838;SDS011;19182;41.820;12.808;2023-07-29T14:02:24;5.93;;;3.03;;
32838;SDS011;19182;41.820;12.808;2023-07-29T14:04:51;8.20;;;3.70;;
32838;SDS011;19182;41.820;12.808;2023-07-29T14:07:17;9.48;;;4.63;;
32838;SDS011;19182;41.820;12.808;2023-07-29T14:09:43;7.32;;;5.03;;
32838;SDS011;19182;41.820;12.808;2023-07-29T14:12:09;8.35;;;4.20;;
32838;SDS011;19182;41.820;12.808;2023-07-29T14:14:39;9.10;;;4.78;;
32838;SDS011;19182;41.820;12.808;2023-07-29T14:17:05;8.82;;;4.32;;
32838;SDS011;19182;41.820;12.808;2023-07-29T14:19:34;7.32;;;4.53;;
32838;SDS011;19182;41.820;12.808;2023-07-29T14:21:59;10.02;;;4.70;;
32838;SDS011;19182;41.820;12.808;2023-07-29T14:24:25;8.82;;;4.90;;
32838;SDS011;19182;41.820;12.808;2023-07-29T14:26:51;10.82;;;4.88;;
32838;SDS011;19182;41.820;12.808;2023-07-29T14:29:16;14.95;;;7.15;;
32838;SDS011;19182;41.820;12.808;2023-07-29T14:31:42;13.88;;;6.47;;
32838;SDS011;19182;41.820;12.808;2023-07-29T14:34:09;12.57;;;6.68;;
32838;SDS011;19182;41.820;12.808;2023-07-29T14:36:35;10.65;;;5.03;;
32838;SDS011;19182;41.820;12.808;2023-07-29T14:39:01;10.60;;;5.55;;
32838;SDS011;19182;41.820;12.808;2023-07-29T14:41:27;9.52;;;5.63;;
32838;SDS011;19182;41.820;12.808;2023-07-29T14:43:52;13.40;;;6.50;;
32838;SDS011;19182;41.820;12.808;2023-07-29T14:46:18;19.83;;;9.70;;
32838;SDS011;19182;41.820;12.808;2023-07-29T14:48:44;14.07;;;10.10;;
32838;SDS011;19182;41.820;12.808;2023-07-29T14:51:12;17.52;;;10.90;;
32838;SDS011;19182;41.820;12.808;2023-07-29T14:53:38;15.30;;;10.23;;
32838;SDS011;19182;41.820;12.808;2023-07-29T14:56:04;12.77;;;9.00;;
32838;SDS011;19182;41.820;12.808;2023-07-29T14:58:30;19.33;;;9.30;;